createdAt,value
2023-01-21T00:00:45.767Z,8.77
2023-01-21T00:03:12.886Z,9.60
2023-01-21T00:05:39.750Z,9.30
2023-01-21T00:08:06.385Z,8.05
2023-01-21T00:10:33.601Z,8.35
2023-01-21T00:13:00.491Z,8.30
2023-01-21T00:15:27.149Z,8.63
2023-01-21T00:17:54.441Z,8.63
2023-01-21T00:20:21.284Z,8.10
2023-01-21T00:22:47.862Z,9.07
2023-01-21T00:25:14.428Z,9.05
2023-01-21T00:27:41.265Z,8.32
2023-01-21T00:30:08.594Z,9.25
2023-01-21T00:32:35.251Z,8.32
2023-01-21T00:35:01.826Z,7.80
2023-01-21T00:37:28.563Z,7.03
2023-01-21T00:39:55.248Z,8.38
2023-01-21T00:42:21.961Z,8.52
2023-01-21T00:44:48.540Z,8.68
2023-01-21T00:47:15.333Z,8.43
2023-01-21T00:49:41.844Z,8.60
2023-01-21T00:52:08.391Z,8.93
2023-01-21T00:54:35.259Z,9.90
2023-01-21T00:57:01.949Z,8.73
2023-01-21T00:59:28.769Z,11.27
2023-01-21T01:01:55.591Z,8.07
2023-01-21T01:04:22.984Z,9.70
2023-01-21T01:06:49.661Z,9.85
2023-01-21T01:09:16.677Z,10.63
2023-01-21T01:11:43.381Z,8.65
2023-01-21T01:14:09.972Z,10.25
2023-01-21T01:16:36.699Z,7.53
2023-01-21T01:19:03.710Z,8.57
2023-01-21T01:21:30.675Z,9.32
2023-01-21T01:24:00.581Z,9.98
2023-01-21T01:26:27.252Z,9.40
2023-01-21T01:28:53.950Z,7.65
2023-01-21T01:31:22.275Z,9.77
2023-01-21T01:33:49.102Z,9.32
2023-01-21T01:36:23.536Z,10.02
2023-01-21T01:38:51.097Z,9.00
2023-01-21T01:41:21.438Z,10.82
2023-01-21T01:43:49.583Z,9.27
2023-01-21T01:46:16.715Z,9.13
2023-01-21T01:48:46.937Z,9.48
2023-01-21T01:51:16.938Z,9.77
2023-01-21T01:53:46.062Z,9.00
2023-01-21T01:56:14.326Z,9.52
2023-01-21T01:58:41.438Z,9.68
2023-01-21T02:01:08.291Z,10.85
2023-01-21T02:03:46.300Z,8.27
2023-01-21T02:06:15.140Z,9.88
2023-01-21T02:08:44.644Z,9.00
2023-01-21T02:11:16.086Z,10.10
2023-01-21T02:13:45.873Z,7.82
2023-01-21T02:16:21.592Z,9.68
2023-01-21T02:19:03.165Z,11.40
2023-01-21T02:21:47.692Z,8.63
2023-01-21T02:25:01.927Z,7.95
2023-01-21T02:28:19.243Z,8.57
2023-01-21T02:31:14.031Z,9.05
2023-01-21T02:33:54.041Z,9.32
2023-01-21T02:36:39.533Z,9.18
2023-01-21T02:39:40.178Z,8.50
2023-01-21T02:42:17.255Z,8.15
2023-01-21T02:44:54.327Z,9.02
2023-01-21T02:47:37.198Z,8.90
2023-01-21T02:50:18.989Z,10.15
2023-01-21T02:52:45.659Z,8.43
2023-01-21T02:55:15.865Z,8.98
2023-01-21T02:57:49.049Z,9.07
2023-01-21T03:00:27.328Z,9.40
2023-01-21T03:03:15.344Z,9.95
2023-01-21T03:05:41.817Z,9.30
2023-01-21T03:08:17.648Z,8.38
2023-01-21T03:11:05.780Z,9.05
2023-01-21T03:13:57.358Z,9.07
2023-01-21T03:16:50.029Z,9.07
2023-01-21T03:19:18.448Z,9.77
2023-01-21T03:21:47.117Z,10.88
2023-01-21T03:24:14.756Z,9.65
2023-01-21T03:26:48.328Z,9.73
2023-01-21T03:29:21.203Z,9.73
2023-01-21T03:31:51.812Z,9.57
2023-01-21T03:34:20.172Z,9.18
2023-01-21T03:36:53.257Z,8.60
2023-01-21T03:39:42.615Z,10.05
2023-01-21T03:42:10.312Z,9.57
2023-01-21T03:44:38.053Z,7.88
2023-01-21T03:47:23.703Z,9.20
2023-01-21T03:52:24.175Z,9.35
2023-01-21T03:54:51.250Z,9.70
2023-01-21T03:57:17.903Z,9.60
2023-01-21T03:59:44.608Z,9.00
2023-01-21T04:02:11.328Z,7.85
2023-01-21T04:04:37.971Z,10.13
2023-01-21T04:07:04.824Z,9.88
2023-01-21T04:09:31.414Z,8.98
2023-01-21T04:12:00.252Z,9.75
2023-01-21T04:14:26.970Z,7.40
2023-01-21T04:16:53.565Z,9.45
2023-01-21T04:19:20.180Z,7.97
2023-01-21T04:21:47.012Z,8.20
2023-01-21T04:24:13.562Z,9.57
2023-01-21T04:26:40.223Z,9.52
2023-01-21T04:29:06.904Z,9.40
2023-01-21T04:31:33.700Z,10.70
2023-01-21T04:34:00.383Z,9.93
2023-01-21T04:36:27.112Z,10.40
2023-01-21T04:38:53.651Z,9.02
2023-01-21T04:41:20.312Z,10.38
2023-01-21T04:43:46.898Z,8.20
2023-01-21T04:46:13.573Z,10.43
2023-01-21T04:48:40.271Z,9.77
2023-01-21T04:51:07.812Z,10.30
2023-01-21T04:53:34.764Z,10.73
2023-01-21T04:56:01.372Z,10.82
2023-01-21T04:58:27.871Z,10.43
2023-01-21T05:00:55.510Z,9.20
2023-01-21T05:03:22.165Z,11.00
2023-01-21T05:05:48.791Z,11.07
2023-01-21T05:08:15.389Z,10.68
2023-01-21T05:10:42.016Z,11.40
2023-01-21T05:13:08.508Z,10.95
2023-01-21T05:15:35.204Z,12.00
2023-01-21T05:18:01.824Z,11.48
2023-01-21T05:20:29.114Z,11.82
2023-01-21T05:22:55.779Z,10.15
2023-01-21T05:25:22.425Z,11.93
2023-01-21T05:27:53.896Z,9.82
2023-01-21T05:30:21.115Z,10.38
2023-01-21T05:32:54.446Z,10.30
2023-01-21T05:35:22.717Z,11.45
2023-01-21T05:37:49.670Z,11.13
2023-01-21T05:40:17.737Z,11.57
2023-01-21T05:42:44.539Z,10.07
2023-01-21T05:45:11.681Z,10.68
2023-01-21T05:47:38.350Z,12.02
2023-01-21T05:50:05.469Z,10.40
2023-01-21T05:52:32.060Z,9.10
2023-01-21T05:55:02.359Z,10.93
2023-01-21T05:57:30.283Z,9.95
2023-01-21T05:59:56.901Z,11.88
2023-01-21T06:02:25.160Z,11.82
2023-01-21T06:04:51.766Z,9.65
2023-01-21T06:07:18.425Z,10.95
2023-01-21T06:09:44.937Z,10.85
2023-01-21T06:12:11.580Z,11.45
2023-01-21T06:14:38.056Z,11.13
2023-01-21T06:17:04.684Z,11.35
2023-01-21T06:19:31.202Z,11.43
2023-01-21T06:21:57.752Z,12.63
2023-01-21T06:24:24.405Z,11.65
2023-01-21T06:26:51.146Z,10.63
2023-01-21T06:29:17.704Z,11.20
2023-01-21T06:31:44.381Z,10.90
2023-01-21T06:34:12.555Z,12.68
2023-01-21T06:36:42.441Z,11.95
2023-01-21T06:39:11.847Z,10.82
2023-01-21T06:41:38.589Z,11.95
2023-01-21T06:44:05.851Z,12.10
2023-01-21T06:46:33.137Z,12.30
2023-01-21T06:49:00.137Z,10.55
2023-01-21T06:51:26.838Z,11.98
2023-01-21T06:53:53.673Z,12.15
2023-01-21T06:56:22.148Z,10.63
2023-01-21T06:58:48.726Z,11.43
2023-01-21T07:01:15.417Z,11.68
2023-01-21T07:03:42.042Z,9.90
2023-01-21T07:06:08.659Z,11.88
2023-01-21T07:08:35.459Z,10.60
2023-01-21T07:11:02.198Z,11.20
2023-01-21T07:13:28.868Z,11.10
2023-01-21T07:16:01.721Z,11.75
2023-01-21T07:18:28.490Z,9.70
2023-01-21T07:20:56.380Z,12.43
2023-01-21T07:23:23.450Z,10.73
2023-01-21T07:25:50.099Z,11.60
2023-01-21T07:28:16.657Z,11.38
2023-01-21T07:30:43.608Z,12.05
2023-01-21T07:33:10.978Z,10.85
2023-01-21T07:35:37.532Z,12.00
2023-01-21T07:38:04.500Z,10.52
2023-01-21T07:40:31.151Z,12.52
2023-01-21T07:42:57.886Z,11.38
2023-01-21T07:45:25.054Z,11.63
2023-01-21T07:47:51.671Z,10.88
2023-01-21T07:50:18.403Z,11.30
2023-01-21T07:52:44.994Z,9.60
2023-01-21T07:55:12.732Z,9.95
2023-01-21T07:57:39.546Z,11.02
2023-01-21T08:00:07.094Z,10.73
2023-01-21T08:02:38.691Z,10.18
2023-01-21T08:05:07.013Z,9.60
2023-01-21T08:07:33.661Z,10.70
2023-01-21T08:10:00.301Z,11.70
2023-01-21T08:12:27.390Z,11.82
2023-01-21T08:14:54.353Z,10.98
2023-01-21T08:17:20.941Z,10.82
2023-01-21T08:19:47.512Z,12.00
2023-01-21T08:22:14.069Z,10.15
2023-01-21T08:24:40.593Z,12.75
2023-01-21T08:27:07.204Z,11.65
2023-01-21T08:29:33.877Z,11.18
2023-01-21T08:32:00.539Z,11.88
2023-01-21T08:34:27.179Z,11.85
2023-01-21T08:36:53.778Z,10.32
2023-01-21T08:39:20.539Z,10.27
2023-01-21T08:41:47.163Z,10.60
2023-01-21T08:44:15.017Z,10.15
2023-01-21T08:46:41.616Z,13.73
2023-01-21T08:49:08.344Z,11.63
2023-01-21T08:51:34.988Z,12.15
2023-01-21T08:54:01.618Z,11.88
2023-01-21T08:56:28.296Z,11.68
2023-01-21T08:58:56.748Z,11.43
2023-01-21T09:01:25.638Z,11.75
2023-01-21T09:03:57.870Z,12.93
2023-01-21T09:06:26.831Z,13.30
2023-01-21T09:08:53.923Z,11.38
2023-01-21T09:11:21.312Z,10.18
2023-01-21T09:13:47.978Z,10.57
2023-01-21T09:16:20.109Z,10.55
2023-01-21T09:18:47.512Z,10.90
2023-01-21T09:21:15.675Z,12.02
2023-01-21T09:23:42.937Z,11.55
2023-01-21T09:26:16.745Z,10.73
2023-01-21T09:28:46.784Z,11.95
2023-01-21T09:31:18.480Z,12.23
2023-01-21T09:33:47.633Z,11.98
2023-01-21T09:36:18.938Z,13.73
2023-01-21T09:38:47.203Z,11.18
2023-01-21T09:41:29.107Z,12.73
2023-01-21T09:44:31.029Z,11.65
2023-01-21T09:47:17.916Z,10.75
2023-01-21T09:49:50.804Z,13.13
2023-01-21T09:52:36.839Z,13.45
2023-01-21T09:55:06.156Z,14.18
2023-01-21T09:57:35.672Z,14.05
2023-01-21T10:00:29.552Z,13.40
2023-01-21T10:03:04.512Z,12.07
2023-01-21T10:05:52.763Z,14.20
2023-01-21T10:08:27.447Z,13.82
2023-01-21T10:11:32.671Z,12.80
2023-01-21T10:14:15.790Z,14.00
2023-01-21T10:17:05.436Z,13.95
2023-01-21T10:19:45.384Z,13.77
2023-01-21T10:22:24.782Z,12.13
2023-01-21T10:25:18.514Z,11.90
2023-01-21T10:27:45.982Z,11.50
2023-01-21T10:30:23.731Z,13.55
2023-01-21T10:32:52.727Z,11.50
2023-01-21T10:35:31.251Z,12.82
2023-01-21T10:38:25.771Z,12.52
2023-01-21T10:41:00.209Z,12.15
2023-01-21T10:43:45.851Z,12.67
2023-01-21T10:49:23.193Z,10.90
2023-01-21T10:52:06.400Z,10.83
2023-01-21T10:55:13.043Z,13.93
2023-01-21T10:58:12.189Z,12.70
2023-01-21T11:00:44.411Z,10.65
2023-01-21T11:03:16.116Z,11.27
2023-01-21T11:05:43.579Z,9.52
2023-01-21T11:08:20.426Z,10.55
2023-01-21T11:10:49.980Z,9.93
2023-01-21T11:13:16.596Z,9.48
2023-01-21T11:15:51.650Z,11.75
2023-01-21T11:21:20.345Z,10.43
2023-01-21T11:24:01.295Z,9.20
2023-01-21T11:26:34.171Z,10.07
2023-01-21T11:29:11.408Z,9.00
2023-01-21T11:31:39.571Z,8.77
2023-01-21T11:34:12.916Z,10.10
2023-01-21T11:37:06.768Z,9.38
2023-01-21T11:39:36.790Z,7.85
2023-01-21T11:42:13.529Z,10.48
2023-01-21T11:44:52.565Z,9.70
2023-01-21T11:47:48.879Z,9.75
2023-01-21T11:50:16.893Z,9.18
2023-01-21T11:52:44.413Z,10.07
2023-01-21T11:55:48.980Z,8.32
2023-01-21T11:58:38.878Z,8.55
2023-01-21T12:01:09.985Z,9.48
2023-01-21T12:03:42.905Z,8.63
2023-01-21T12:06:21.487Z,8.30
2023-01-21T12:08:51.360Z,7.70
2023-01-21T12:11:29.613Z,8.52
2023-01-21T12:14:11.552Z,8.40
2023-01-21T12:16:45.413Z,8.20
2023-01-21T12:19:21.217Z,8.65
2023-01-21T12:22:06.892Z,6.50
2023-01-21T12:25:04.207Z,6.35
2023-01-21T12:27:51.819Z,7.47
2023-01-21T12:30:54.913Z,7.10
2023-01-21T12:33:36.849Z,6.55
2023-01-21T12:36:12.867Z,7.28
2023-01-21T12:38:44.612Z,6.97
2023-01-21T12:41:32.293Z,7.78
2023-01-21T12:44:05.537Z,6.28
2023-01-21T12:46:40.620Z,7.80
2023-01-21T12:49:16.935Z,7.18
2023-01-21T12:51:49.483Z,7.57
2023-01-21T12:54:46.342Z,7.13
2023-01-21T12:57:25.821Z,7.10
2023-01-21T13:00:11.606Z,7.72
2023-01-21T13:02:54.405Z,6.23
2023-01-21T13:05:45.443Z,8.38
2023-01-21T13:08:20.762Z,6.70
2023-01-21T13:13:20.723Z,7.90
2023-01-21T13:15:52.764Z,8.00
2023-01-21T13:18:33.734Z,7.50
2023-01-21T13:21:23.417Z,7.38
2023-01-21T13:24:15.337Z,7.43
2023-01-21T13:27:02.544Z,6.53
2023-01-21T13:29:35.191Z,8.77
2023-01-21T13:32:23.775Z,9.13
2023-01-21T13:35:06.651Z,7.82
2023-01-21T13:37:43.686Z,7.57
2023-01-21T13:40:29.208Z,7.18
2023-01-21T13:43:10.263Z,9.65
2023-01-21T13:45:55.246Z,8.45
2023-01-21T13:48:44.672Z,7.60
2023-01-21T13:51:40.423Z,7.97
2023-01-21T13:54:16.236Z,8.60
2023-01-21T13:57:01.634Z,7.80
2023-01-21T13:59:37.433Z,7.43
2023-01-21T14:02:40.615Z,8.80
2023-01-21T14:05:22.654Z,8.00
2023-01-21T14:07:56.278Z,7.80
2023-01-21T14:10:50.564Z,8.82
2023-01-21T14:13:45.115Z,7.35
2023-01-21T14:16:45.692Z,8.75
2023-01-21T14:19:31.072Z,8.80
2023-01-21T14:21:57.556Z,8.40
2023-01-21T14:24:45.302Z,9.00
2023-01-21T14:27:24.859Z,8.20
2023-01-21T14:30:05.188Z,8.50
2023-01-21T14:32:47.040Z,8.05
2023-01-21T14:35:21.316Z,7.80
2023-01-21T14:38:04.048Z,8.38
2023-01-21T14:40:33.591Z,8.68
2023-01-21T14:43:00.678Z,7.57
2023-01-21T14:45:52.407Z,8.68
2023-01-21T14:48:34.061Z,8.15
2023-01-21T14:51:12.094Z,8.60
2023-01-21T14:54:19.402Z,7.82
2023-01-21T14:57:31.872Z,8.15
2023-01-21T15:00:10.191Z,7.35
2023-01-21T15:02:42.499Z,8.15
2023-01-21T15:05:23.549Z,8.18
2023-01-21T15:08:04.561Z,6.80
2023-01-21T15:10:37.670Z,7.65
2023-01-21T15:13:34.876Z,7.70
2023-01-21T15:16:16.143Z,6.30
2023-01-21T15:19:05.228Z,7.65
2023-01-21T15:21:36.918Z,6.45
2023-01-21T15:24:35.596Z,6.68
2023-01-21T15:27:22.467Z,5.88
2023-01-21T15:29:55.165Z,6.20
2023-01-21T15:32:37.627Z,5.50
2023-01-21T15:35:31.204Z,5.95
2023-01-21T15:38:15.243Z,6.47
2023-01-21T15:40:46.487Z,5.88
2023-01-21T15:43:27.019Z,5.90
2023-01-21T15:45:59.628Z,6.22
2023-01-21T15:48:48.399Z,5.60
2023-01-21T15:52:00.171Z,5.72
2023-01-21T15:54:46.104Z,4.97
2023-01-21T15:57:30.613Z,5.82
2023-01-21T16:00:03.053Z,6.10
2023-01-21T16:02:33.145Z,6.22
2023-01-21T16:05:30.978Z,6.47
2023-01-21T16:08:08.610Z,6.07
2023-01-21T16:10:56.007Z,6.30
2023-01-21T16:13:52.230Z,5.63
2023-01-21T16:16:19.016Z,6.20
2023-01-21T16:19:03.266Z,5.47
2023-01-21T16:21:43.822Z,6.43
2023-01-21T16:24:17.062Z,5.72
2023-01-21T16:26:43.798Z,5.72
2023-01-21T16:29:13.155Z,6.45
2023-01-21T16:31:49.168Z,5.43
2023-01-21T16:34:24.909Z,6.32
2023-01-21T16:36:51.582Z,8.27
2023-01-21T16:39:19.273Z,7.03
2023-01-21T16:42:00.965Z,7.60
2023-01-21T16:44:28.655Z,7.93
2023-01-21T16:46:55.962Z,7.03
2023-01-21T16:49:22.896Z,8.27
2023-01-21T16:52:00.358Z,6.47
2023-01-21T16:54:29.683Z,6.32
2023-01-21T16:57:01.261Z,7.55
2023-01-21T16:59:37.689Z,7.82
2023-01-21T17:02:05.785Z,7.07
2023-01-21T17:04:32.278Z,7.78
2023-01-21T17:06:59.264Z,8.88
2023-01-21T17:09:33.676Z,7.75
2023-01-21T17:12:11.121Z,11.83
2023-01-21T17:14:37.731Z,11.68
2023-01-21T17:17:08.224Z,14.85
2023-01-21T17:19:42.267Z,15.20
2023-01-21T17:22:21.773Z,17.77
2023-01-21T17:25:02.124Z,15.48
2023-01-21T17:27:29.997Z,14.60
2023-01-21T17:30:18.920Z,11.00
2023-01-21T17:32:57.966Z,11.52
2023-01-21T17:35:26.973Z,9.75
2023-01-21T17:37:56.331Z,9.20
2023-01-21T17:40:38.024Z,7.53
2023-01-21T17:43:32.274Z,7.05
2023-01-21T17:45:59.309Z,6.18
2023-01-21T17:48:31.055Z,7.25
2023-01-21T17:51:13.504Z,7.18
2023-01-21T17:53:46.244Z,6.85
2023-01-21T17:56:13.181Z,7.38
2023-01-21T17:58:55.907Z,7.43
2023-01-21T18:01:22.632Z,5.93
2023-01-21T18:03:49.373Z,6.80
2023-01-21T18:06:19.936Z,7.72
2023-01-21T18:08:46.881Z,6.28
2023-01-21T18:11:16.211Z,7.30
2023-01-21T18:13:43.035Z,6.95
2023-01-21T18:16:10.406Z,6.35
2023-01-21T18:18:38.093Z,7.35
2023-01-21T18:21:05.365Z,5.85
2023-01-21T18:23:32.528Z,6.43
2023-01-21T18:25:59.268Z,6.93
2023-01-21T18:28:28.525Z,7.63
2023-01-21T18:30:57.486Z,7.85
2023-01-21T18:33:24.964Z,8.40
2023-01-21T18:35:52.790Z,7.07
2023-01-21T18:38:27.328Z,7.45
2023-01-21T18:40:55.408Z,6.95
2023-01-21T18:43:22.463Z,7.47
2023-01-21T18:45:49.131Z,7.80
2023-01-21T18:48:17.010Z,7.60
2023-01-21T18:50:43.723Z,7.78
2023-01-21T18:53:11.951Z,7.50
2023-01-21T18:55:40.009Z,8.13
2023-01-21T18:58:13.950Z,8.10
2023-01-21T19:00:41.462Z,7.63
2023-01-21T19:03:11.857Z,8.05
2023-01-21T19:05:40.861Z,9.25
2023-01-21T19:08:24.501Z,8.63
2023-01-21T19:10:51.548Z,8.52
2023-01-21T19:13:18.053Z,7.90
2023-01-21T19:15:45.269Z,9.10
2023-01-21T19:18:15.751Z,8.10
2023-01-21T19:20:42.998Z,10.27
2023-01-21T19:23:16.109Z,8.30
2023-01-21T19:25:49.738Z,8.80
2023-01-21T19:28:16.470Z,9.43
2023-01-21T19:30:45.092Z,9.25
2023-01-21T19:33:12.448Z,10.52
2023-01-21T19:35:42.470Z,9.20
2023-01-21T19:38:16.365Z,9.23
2023-01-21T19:40:42.937Z,10.45
2023-01-21T19:43:14.113Z,9.60
2023-01-21T19:45:41.139Z,9.18
2023-01-21T19:48:13.395Z,8.90
2023-01-21T19:50:40.327Z,9.70
2023-01-21T19:53:06.890Z,8.98
2023-01-21T19:55:36.751Z,10.05
2023-01-21T19:58:09.903Z,10.57
2023-01-21T20:00:36.625Z,10.10
2023-01-21T20:03:03.427Z,10.63
2023-01-21T20:05:34.432Z,9.48
2023-01-21T20:08:02.301Z,10.27
2023-01-21T20:10:30.261Z,10.30
2023-01-21T20:12:57.269Z,9.27
2023-01-21T20:15:29.002Z,9.27
2023-01-21T20:17:57.834Z,10.27
2023-01-21T20:20:27.252Z,8.75
2023-01-21T20:22:54.214Z,9.52
2023-01-21T20:25:35.149Z,9.30
2023-01-21T20:28:04.124Z,8.40
2023-01-21T20:30:32.722Z,10.15
2023-01-21T20:33:01.403Z,8.35
2023-01-21T20:35:28.029Z,10.38
2023-01-21T20:37:56.514Z,8.45
2023-01-21T20:40:30.684Z,7.90
2023-01-21T20:42:57.818Z,8.45
2023-01-21T20:45:30.389Z,9.75
2023-01-21T20:47:59.563Z,10.65
2023-01-21T20:50:33.429Z,8.98
2023-01-21T20:52:59.993Z,10.40
2023-01-21T20:55:28.197Z,9.07
2023-01-21T20:57:55.292Z,9.10
2023-01-21T21:00:32.401Z,7.82
2023-01-21T21:02:59.023Z,9.10
2023-01-21T21:05:27.639Z,8.95
2023-01-21T21:07:54.980Z,8.63
2023-01-21T21:10:29.435Z,9.32
2023-01-21T21:12:58.572Z,8.57
2023-01-21T21:15:30.736Z,9.18
2023-01-21T21:17:58.632Z,8.10
2023-01-21T21:20:30.565Z,9.13
2023-01-21T21:22:57.223Z,8.48
2023-01-21T21:25:26.094Z,9.07
2023-01-21T21:27:53.957Z,8.98
2023-01-21T21:30:32.434Z,8.15
2023-01-21T21:33:00.861Z,8.63
2023-01-21T21:35:32.808Z,7.97
2023-01-21T21:38:04.419Z,8.48
2023-01-21T21:40:31.293Z,7.93
2023-01-21T21:43:17.016Z,8.25
2023-01-21T21:48:39.004Z,6.40
2023-01-21T21:51:11.537Z,7.90
2023-01-21T21:53:39.787Z,9.07
2023-01-21T21:56:14.807Z,7.25
2023-01-21T21:58:41.684Z,9.60
2023-01-21T22:01:09.419Z,7.47
2023-01-21T22:03:36.021Z,7.85
2023-01-21T22:06:03.927Z,8.20
2023-01-21T22:08:35.665Z,8.82
2023-01-21T22:11:05.387Z,7.80
2023-01-21T22:13:35.091Z,7.45
2023-01-21T22:16:02.157Z,8.45
2023-01-21T22:18:30.966Z,6.78
2023-01-21T22:21:06.244Z,7.90
2023-01-21T22:26:05.646Z,8.15
2023-01-21T22:28:33.363Z,7.68
2023-01-21T22:31:05.497Z,7.40
2023-01-21T22:33:33.473Z,8.80
2023-01-21T22:36:07.761Z,7.15
2023-01-21T22:38:35.695Z,9.55
2023-01-21T22:41:03.325Z,7.28
2023-01-21T22:43:31.098Z,7.85
2023-01-21T22:45:59.460Z,7.47
2023-01-21T22:48:26.373Z,8.18
2023-01-21T22:50:54.878Z,8.65
2023-01-21T22:53:22.251Z,7.22
2023-01-21T22:56:01.014Z,7.05
2023-01-21T22:58:29.997Z,7.82
2023-01-21T23:00:57.624Z,6.32
2023-01-21T23:03:25.373Z,8.15
2023-01-21T23:05:52.247Z,8.05
2023-01-21T23:08:19.596Z,7.25
2023-01-21T23:10:47.276Z,8.35
2023-01-21T23:13:15.096Z,8.00
2023-01-21T23:15:46.575Z,7.47
2023-01-21T23:18:14.719Z,7.72
2023-01-21T23:20:42.993Z,7.78
2023-01-21T23:23:11.785Z,6.88
2023-01-21T23:25:43.263Z,7.25
2023-01-21T23:28:11.354Z,7.78
2023-01-21T23:30:37.913Z,7.72
2023-01-21T23:33:04.699Z,5.97
2023-01-21T23:35:34.063Z,7.32
2023-01-21T23:38:02.244Z,9.45
2023-01-21T23:40:28.802Z,7.22
2023-01-21T23:42:55.362Z,7.50
2023-01-21T23:45:21.872Z,7.30
2023-01-21T23:47:48.520Z,6.90
2023-01-21T23:50:15.556Z,7.50
2023-01-21T23:52:42.463Z,6.57
2023-01-21T23:55:10.343Z,7.15
2023-01-21T23:57:37.264Z,7.78
